createdAt,value
2018-06-27T00:01:55.451Z,15.30
2018-06-27T00:04:22.464Z,15.30
2018-06-27T00:06:49.443Z,15.40
2018-06-27T00:09:16.387Z,15.30
2018-06-27T00:11:43.857Z,15.30
2018-06-27T00:14:10.807Z,15.30
2018-06-27T00:16:37.811Z,15.20
2018-06-27T00:19:04.790Z,15.20
2018-06-27T00:21:31.881Z,15.20
2018-06-27T00:23:58.828Z,15.20
2018-06-27T00:26:25.755Z,15.10
2018-06-27T00:28:52.734Z,15.10
2018-06-27T00:31:19.757Z,15.10
2018-06-27T00:33:46.707Z,15.00
2018-06-27T00:36:13.623Z,14.90
2018-06-27T00:38:40.557Z,14.80
2018-06-27T00:41:07.487Z,14.80
2018-06-27T00:43:34.418Z,14.90
2018-06-27T00:46:01.415Z,14.80
2018-06-27T00:48:28.340Z,14.80
2018-06-27T00:50:55.277Z,14.80
2018-06-27T00:53:26.880Z,14.80
2018-06-27T00:55:53.821Z,14.80
2018-06-27T00:58:20.768Z,14.80
2018-06-27T01:00:47.777Z,14.80
2018-06-27T01:03:14.737Z,14.80
2018-06-27T01:05:41.670Z,14.60
2018-06-27T01:08:08.620Z,14.60
2018-06-27T01:10:35.594Z,14.60
2018-06-27T01:13:02.556Z,14.60
2018-06-27T01:15:29.533Z,14.60
2018-06-27T01:17:57.305Z,14.60
2018-06-27T01:20:24.652Z,14.70
2018-06-27T01:22:51.617Z,14.70
2018-06-27T01:25:18.865Z,14.70
2018-06-27T01:27:46.363Z,14.70
2018-06-27T01:30:13.312Z,14.70
2018-06-27T01:32:40.260Z,14.70
2018-06-27T01:35:07.191Z,14.70
2018-06-27T01:37:34.127Z,14.70
2018-06-27T01:40:01.086Z,14.80
2018-06-27T01:42:28.040Z,14.80
2018-06-27T01:44:54.992Z,14.80
2018-06-27T01:47:21.935Z,14.80
2018-06-27T01:49:48.874Z,14.80
2018-06-27T01:52:15.839Z,14.80
2018-06-27T01:54:42.780Z,14.80
2018-06-27T01:57:09.724Z,14.80
2018-06-27T01:59:36.789Z,14.70
2018-06-27T02:02:03.740Z,14.70
2018-06-27T02:04:30.701Z,14.70
2018-06-27T02:06:57.956Z,14.60
2018-06-27T02:09:24.896Z,14.60
2018-06-27T02:11:51.811Z,14.70
2018-06-27T02:14:19.111Z,14.60
2018-06-27T02:16:46.032Z,14.70
2018-06-27T02:19:12.962Z,14.60
2018-06-27T02:21:39.912Z,14.60
2018-06-27T02:24:07.155Z,14.60
2018-06-27T02:26:34.085Z,14.50
2018-06-27T02:29:01.046Z,14.50
2018-06-27T02:31:28.010Z,14.50
2018-06-27T02:33:54.961Z,14.40
2018-06-27T02:36:21.934Z,14.50
2018-06-27T02:38:48.879Z,14.40
2018-06-27T02:41:15.846Z,14.50
2018-06-27T02:43:42.813Z,14.50
2018-06-27T02:46:09.748Z,14.40
2018-06-27T02:48:36.680Z,14.50
2018-06-27T02:51:03.668Z,14.40
2018-06-27T02:53:35.236Z,14.40
2018-06-27T02:56:02.212Z,14.40
2018-06-27T02:58:29.183Z,14.40
2018-06-27T03:00:56.132Z,14.30
2018-06-27T03:03:23.801Z,14.30
2018-06-27T03:05:50.737Z,14.30
2018-06-27T03:08:17.664Z,14.30
2018-06-27T03:10:44.620Z,14.30
2018-06-27T03:13:11.552Z,14.30
2018-06-27T03:15:38.501Z,14.20
2018-06-27T03:18:05.417Z,14.20
2018-06-27T03:20:32.357Z,14.20
2018-06-27T03:22:59.276Z,14.20
2018-06-27T03:25:26.251Z,14.20
2018-06-27T03:27:53.253Z,14.20
2018-06-27T03:30:20.165Z,14.20
2018-06-27T03:32:47.097Z,14.30
2018-06-27T03:35:14.067Z,14.30
2018-06-27T03:37:40.984Z,14.30
2018-06-27T03:40:07.953Z,14.40
2018-06-27T03:42:34.911Z,14.50
2018-06-27T03:45:01.867Z,14.50
2018-06-27T03:47:28.800Z,14.60
2018-06-27T03:49:55.737Z,14.60
2018-06-27T03:52:22.661Z,14.60
2018-06-27T03:54:49.611Z,14.60
2018-06-27T03:57:16.525Z,14.70
2018-06-27T03:59:43.462Z,14.70
2018-06-27T04:02:10.401Z,14.80
2018-06-27T04:04:37.346Z,14.80
2018-06-27T04:07:04.496Z,14.80
2018-06-27T04:09:31.423Z,14.90
2018-06-27T04:11:58.362Z,14.90
2018-06-27T04:14:25.324Z,14.90
2018-06-27T04:16:52.748Z,14.80
2018-06-27T04:19:19.702Z,14.80
2018-06-27T04:21:46.620Z,14.90
2018-06-27T04:24:13.554Z,15.00
2018-06-27T04:26:40.548Z,15.00
2018-06-27T04:29:07.487Z,14.90
2018-06-27T04:31:34.701Z,15.00
2018-06-27T04:34:01.936Z,15.00
2018-06-27T04:36:28.867Z,15.00
2018-06-27T04:38:55.791Z,15.20
2018-06-27T04:41:22.875Z,15.40
2018-06-27T04:43:49.815Z,15.60
2018-06-27T04:46:16.733Z,15.90
2018-06-27T04:48:43.713Z,16.40
2018-06-27T04:51:10.616Z,16.70
2018-06-27T04:53:37.543Z,17.50
2018-06-27T04:56:04.531Z,18.10
2018-06-27T04:58:31.459Z,18.50
2018-06-27T05:00:58.383Z,18.30
2018-06-27T05:03:25.305Z,18.60
2018-06-27T05:05:52.227Z,18.50
2018-06-27T05:08:19.161Z,19.20
2018-06-27T05:10:46.143Z,19.30
2018-06-27T05:13:13.062Z,19.60
2018-06-27T05:15:40.010Z,19.20
2018-06-27T05:18:06.957Z,19.00
2018-06-27T05:20:33.879Z,18.50
2018-06-27T05:23:00.787Z,18.30
2018-06-27T05:25:27.772Z,18.50
2018-06-27T05:27:54.697Z,19.10
2018-06-27T05:30:21.640Z,18.90
2018-06-27T05:32:48.583Z,18.80
2018-06-27T05:35:15.525Z,18.70
2018-06-27T05:37:42.489Z,18.70
2018-06-27T05:40:09.423Z,18.70
2018-06-27T05:42:36.370Z,18.50
2018-06-27T05:45:03.731Z,18.50
2018-06-27T05:47:30.693Z,18.60
2018-06-27T05:49:57.630Z,18.50
2018-06-27T05:52:24.572Z,18.70
2018-06-27T05:54:57.356Z,18.90
2018-06-27T05:57:24.271Z,19.00
2018-06-27T05:59:51.204Z,19.00
2018-06-27T06:02:18.178Z,19.00
2018-06-27T06:04:45.103Z,19.10
2018-06-27T06:07:12.030Z,19.10
2018-06-27T06:09:38.979Z,19.30
2018-06-27T06:12:05.911Z,19.40
2018-06-27T06:14:32.922Z,19.70
2018-06-27T06:16:59.934Z,19.90
2018-06-27T06:19:26.856Z,20.20
2018-06-27T06:21:53.874Z,20.20
2018-06-27T06:24:20.902Z,20.80
2018-06-27T06:26:47.833Z,21.20
2018-06-27T06:29:14.793Z,21.90
2018-06-27T06:31:41.752Z,22.50
2018-06-27T06:34:08.699Z,23.20
2018-06-27T06:36:35.667Z,23.50
2018-06-27T06:39:03.665Z,23.80
2018-06-27T06:41:30.611Z,23.90
